Time;durP1;ratioP1;P1;durP2;ratioP2;P2;SDS_P1;SDS_P2;PMS_P1;PMS_P2;Temp;Humidity;BMP_temperature;BMP_pressure;BME280_temperature;BME280_humidity;BME280_pressure;Samples;Min_cycle;Max_cycle;Signal;HPM_P1;HPM_P2
2022/04/29 00:02:06;;;;;;;1.27;1.00;;;;;;;21.24;36.71;102811.69;5013754;28;20030;-71
2022/04/29 00:04:32;;;;;;;0.90;0.90;;;;;;;21.25;36.82;102807.84;5011948;28;20478;-71
2022/04/29 00:06:58;;;;;;;2.20;1.25;;;;;;;21.25;36.76;102812.56;5013385;28;20029;-71
2022/04/29 00:09:24;;;;;;;1.00;0.90;;;;;;;21.25;36.81;102812.56;4996122;28;20038;-71
2022/04/29 00:11:51;;;;;;;2.25;1.02;;;;;;;21.24;36.72;102811.69;5013041;28;20030;-71
2022/04/29 00:14:16;;;;;;;0.90;0.88;;;;;;;21.20;36.83;102794.78;5013073;28;20104;-71
2022/04/29 00:16:42;;;;;;;1.02;0.82;;;;;;;21.22;36.72;102797.31;5012661;28;20570;-71
2022/04/29 00:19:07;;;;;;;0.98;0.95;;;;;;;21.23;36.75;102799.00;5012715;28;20465;-70
2022/04/29 00:21:33;;;;;;;0.77;0.73;;;;;;;21.24;36.87;102794.28;5011651;28;20030;-71
2022/04/29 00:23:58;;;;;;;1.63;1.00;;;;;;;21.23;36.81;102807.28;5011702;28;20034;-71
2022/04/29 00:26:23;;;;;;;2.13;0.93;;;;;;;21.23;36.59;102800.88;5011621;28;20038;-71
2022/04/29 00:28:49;;;;;;;0.82;0.82;;;;;;;21.22;36.71;102804.75;5012510;28;20037;-71
2022/04/29 00:31:14;;;;;;;1.10;1.00;;;;;;;21.22;36.76;102802.00;5011549;28;20063;-71
2022/04/29 00:33:40;;;;;;;0.90;0.90;;;;;;;21.22;36.78;102799.22;5013062;28;20078;-71
2022/04/29 00:36:06;;;;;;;0.80;0.80;;;;;;;21.18;36.84;102798.84;4979183;28;20042;-71
2022/04/29 00:38:31;;;;;;;1.27;0.90;;;;;;;21.20;36.72;102800.31;5012752;28;20034;-71
2022/04/29 00:40:57;;;;;;;1.50;1.00;;;;;;;21.19;37.00;102793.09;5011567;28;20466;-71
2022/04/29 00:43:22;;;;;;;0.95;0.73;;;;;;;21.17;36.93;102791.66;5011347;28;20041;-71
2022/04/29 00:45:47;;;;;;;1.05;0.80;;;;;;;21.19;36.78;102790.34;5012533;28;20040;-71
2022/04/29 00:48:13;;;;;;;2.00;1.02;;;;;;;21.18;36.74;102796.09;5011387;28;20069;-71
2022/04/29 00:50:38;;;;;;;1.73;1.00;;;;;;;21.19;36.79;102789.50;5012545;28;20026;-71
2022/04/29 00:53:07;;;;;;;1.33;1.08;;;;;;;21.17;36.93;102786.13;5012748;28;20515;-72
2022/04/29 00:55:34;;;;;;;1.02;0.90;;;;;;;21.17;36.60;102783.38;5012153;28;20026;-71
2022/04/29 00:58:31;;;;;;;1.45;1.10;;;;;;;21.19;37.04;102789.50;5011965;28;20393;-72
2022/04/29 01:00:56;;;;;;;1.15;1.00;;;;;;;21.16;36.78;102782.53;5012343;28;20038;-71
2022/04/29 01:03:25;;;;;;;1.00;0.90;;;;;;;21.18;36.79;102787.81;5012330;28;20040;-72
2022/04/29 01:05:50;;;;;;;1.40;0.90;;;;;;;21.17;36.88;102784.22;5012475;28;20026;-71
2022/04/29 01:08:16;;;;;;;1.10;0.77;;;;;;;21.17;36.84;102788.88;5012260;28;20030;-72
2022/04/29 01:10:41;;;;;;;1.05;0.80;;;;;;;21.16;36.76;102785.28;5011002;28;20033;-72
2022/04/29 01:13:06;;;;;;;0.80;0.77;;;;;;;21.16;36.91;102778.94;5010725;28;20025;-72
2022/04/29 01:15:32;;;;;;;1.83;0.90;;;;;;;21.15;37.15;102780.84;5012077;28;20054;-71
2022/04/29 01:18:11;;;;;;;0.63;0.63;;;;;;;21.16;37.03;102774.25;5010656;28;20087;-71
2022/04/29 01:20:38;;;;;;;0.85;0.85;;;;;;;21.13;36.96;102765.63;5012161;28;20462;-71
2022/04/29 01:23:08;;;;;;;0.90;0.90;;;;;;;21.14;36.92;102765.38;5012051;28;20026;-71
2022/04/29 01:25:33;;;;;;;1.75;0.93;;;;;;;21.15;36.96;102760.69;5011923;28;20034;-71
2022/04/29 01:27:59;;;;;;;0.93;0.80;;;;;;;21.14;36.68;102754.34;5011943;28;20041;-71
2022/04/29 01:30:24;;;;;;;0.80;0.80;;;;;;;21.11;36.97;102743.78;5010835;28;20041;-71
2022/04/29 01:32:52;;;;;;;1.02;1.00;;;;;;;21.12;36.81;102733.59;5010474;28;20454;-71
2022/04/29 01:35:17;;;;;;;0.77;0.77;;;;;;;21.12;36.93;102741.84;5010624;28;20064;-71
2022/04/29 01:37:43;;;;;;;0.70;0.70;;;;;;;21.13;36.73;102749.91;5010877;28;20061;-71
2022/04/29 01:40:10;;;;;;;0.77;0.70;;;;;;;21.13;37.00;102744.38;5011800;28;20038;-71
2022/04/29 01:42:36;;;;;;;1.30;1.05;;;;;;;21.12;36.83;102739.94;5011633;28;20053;-71
2022/04/29 01:45:02;;;;;;;0.70;0.70;;;;;;;21.12;36.95;102744.63;5011727;28;20084;-71
2022/04/29 01:47:28;;;;;;;0.70;0.70;;;;;;;21.12;36.75;102739.09;5011321;28;20033;-71
2022/04/29 01:49:53;;;;;;;1.50;0.88;;;;;;;21.12;36.71;102741.84;5012212;28;20034;-71
2022/04/29 01:52:18;;;;;;;1.10;1.00;;;;;;;21.11;36.78;102746.56;5011010;28;20450;-71
2022/04/29 01:54:44;;;;;;;1.10;0.95;;;;;;;21.11;36.88;102737.41;5012099;28;20454;-71
2022/04/29 01:57:09;;;;;;;0.90;0.77;;;;;;;21.11;36.80;102743.78;5010242;28;20038;-71
2022/04/29 01:59:38;;;;;;;0.80;0.80;;;;;;;21.11;36.75;102748.44;5011148;28;20034;-71
2022/04/29 02:02:07;;;;;;;0.90;0.70;;;;;;;21.10;36.96;102747.63;5011482;28;20030;-71
2022/04/29 02:04:36;;;;;;;1.05;1.00;;;;;;;21.10;36.87;102742.09;5011455;28;20037;-71
2022/04/29 02:07:06;;;;;;;1.00;0.90;;;;;;;21.10;36.72;102741.28;5011301;28;20057;-71
2022/04/29 02:09:33;;;;;;;0.90;0.90;;;;;;;21.10;36.77;102739.34;5011346;28;20390;-71
2022/04/29 02:12:05;;;;;;;1.20;0.70;;;;;;;21.09;36.85;102740.41;5011239;28;20098;-71
2022/04/29 02:14:41;;;;;;;0.70;0.70;;;;;;;21.09;36.75;102740.41;5011942;28;20065;-70
2022/04/29 02:17:08;;;;;;;0.80;0.70;;;;;;;21.07;36.69;102741.72;5011106;28;20066;-71
2022/04/29 02:19:35;;;;;;;1.25;0.70;;;;;;;21.08;36.83;102740.66;5010253;28;20087;-71
2022/04/29 02:22:02;;;;;;;0.60;0.60;;;;;;;21.09;36.79;102742.34;5011491;28;20038;-71
2022/04/29 02:24:28;;;;;;;1.02;0.88;;;;;;;21.07;37.16;102736.22;5010896;28;20125;-71
2022/04/29 02:26:54;;;;;;;0.60;0.60;;;;;;;21.07;37.09;102733.44;5011624;28;20438;-71
2022/04/29 02:29:20;;;;;;;0.57;0.57;;;;;;;21.06;36.86;102732.63;5011086;28;20107;-71
2022/04/29 02:31:45;;;;;;;0.80;0.80;;;;;;;21.05;36.90;102725.41;5010857;28;20466;-71
2022/04/29 02:34:11;;;;;;;0.68;0.68;;;;;;;21.06;36.84;102723.50;5011345;28;20374;-71
2022/04/29 02:36:37;;;;;;;1.02;0.93;;;;;;;21.06;36.88;102732.63;5011040;28;20125;-70
2022/04/29 02:39:03;;;;;;;0.73;0.70;;;;;;;21.07;36.80;102736.22;5010030;28;20065;-71
2022/04/29 02:41:29;;;;;;;0.63;0.63;;;;;;;21.06;36.95;102721.59;5010984;28;20488;-71
2022/04/29 02:43:54;;;;;;;0.60;0.60;;;;;;;21.06;37.03;102729.03;5010946;28;20036;-71
2022/04/29 02:46:20;;;;;;;0.77;0.77;;;;;;;21.05;36.78;102728.16;5014287;28;20034;-71
2022/04/29 02:48:47;;;;;;;0.75;0.75;;;;;;;21.05;36.87;102741.13;5013254;28;20374;-71
2022/04/29 02:51:13;;;;;;;0.90;0.80;;;;;;;21.02;36.96;102724.00;5014046;28;20049;-71
2022/04/29 02:53:39;;;;;;;0.93;0.90;;;;;;;21.04;36.78;102734.78;5014280;28;20103;-71
2022/04/29 02:56:04;;;;;;;1.25;1.00;;;;;;;21.02;36.99;102729.50;5013147;28;20470;-71
2022/04/29 02:58:30;;;;;;;0.68;0.68;;;;;;;21.05;36.85;102730.09;5013547;28;20039;-71
2022/04/29 03:00:56;;;;;;;0.70;0.70;;;;;;;21.01;37.00;102725.06;5013070;28;20507;-71
2022/04/29 03:03:22;;;;;;;0.68;0.68;;;;;;;21.04;37.18;102729.28;5014160;28;20541;-71
2022/04/29 03:05:47;;;;;;;1.05;0.80;;;;;;;21.01;36.86;102724.25;5014352;28;20122;-71
2022/04/29 03:08:12;;;;;;;0.75;0.75;;;;;;;21.02;36.71;102717.63;4996593;28;20030;-71
2022/04/29 03:10:38;;;;;;;0.75;0.75;;;;;;;21.01;36.94;102705.75;5012915;28;20043;-71
2022/04/29 03:13:04;;;;;;;1.10;0.85;;;;;;;21.01;36.86;102704.94;5014100;28;20466;-71
2022/04/29 03:15:29;;;;;;;0.63;0.63;;;;;;;21.01;36.93;102704.94;5014012;28;20144;-71
2022/04/29 03:20:41;;;;;;;0.90;0.82;;;;;;;20.98;36.89;102681.41;5014273;28;20382;-71
2022/04/29 03:23:08;;;;;;;1.15;0.80;;;;;;;21.00;37.13;102683.91;5013936;28;20034;-71
2022/04/29 03:25:34;;;;;;;0.82;0.80;;;;;;;21.00;36.88;102700.47;5014108;28;20117;-71
2022/04/29 03:27:59;;;;;;;0.93;0.70;;;;;;;20.99;36.91;102705.16;5013771;28;20033;-72
2022/04/29 03:30:25;;;;;;;0.60;0.60;;;;;;;20.98;36.83;102708.16;5013835;28;20044;-71
2022/04/29 03:32:55;;;;;;;1.08;0.85;;;;;;;20.98;36.94;102711.75;5013482;28;20473;-71
2022/04/29 03:35:21;;;;;;;0.63;0.63;;;;;;;20.96;36.94;102702.03;5014250;28;20034;-72
2022/04/29 03:37:48;;;;;;;1.52;0.73;;;;;;;20.98;36.97;102711.75;5013943;28;20053;-71
2022/04/29 03:40:14;;;;;;;0.70;0.70;;;;;;;20.98;36.99;102725.56;5013589;28;20374;-71
2022/04/29 03:42:40;;;;;;;0.82;0.80;;;;;;;20.98;36.99;102725.56;5013855;28;20063;-71
2022/04/29 03:45:06;;;;;;;0.75;0.75;;;;;;;20.96;36.96;102716.66;5013602;28;20453;-71
2022/04/29 03:47:31;;;;;;;0.88;0.80;;;;;;;20.96;36.79;102702.03;5013405;28;20448;-70
2022/04/29 03:49:57;;;;;;;0.68;0.68;;;;;;;20.97;36.91;102700.97;5013500;28;20026;-71
2022/04/29 03:52:22;;;;;;;1.83;0.75;;;;;;;20.96;37.04;102697.34;5013170;28;20057;-71
2022/04/29 03:54:48;;;;;;;1.08;0.98;;;;;;;20.96;36.82;102708.38;4996399;28;20074;-71
2022/04/29 03:57:13;;;;;;;1.08;1.05;;;;;;;20.96;36.85;102708.38;5013271;28;20056;-71
2022/04/29 03:59:39;;;;;;;1.33;1.15;;;;;;;20.96;36.76;102713.91;5013247;28;20034;-71
2022/04/29 04:02:05;;;;;;;1.17;0.70;;;;;;;20.94;36.94;102709.72;5013587;28;20059;-71
2022/04/29 04:04:30;;;;;;;0.73;0.70;;;;;;;20.95;36.95;102703.97;5013774;28;20409;-70
2022/04/29 04:07:01;;;;;;;0.98;0.73;;;;;;;20.94;37.18;102706.97;5012259;28;20056;-71
2022/04/29 04:09:27;;;;;;;0.60;0.60;;;;;;;20.94;36.97;102702.28;5012672;28;20038;-71
2022/04/29 04:11:52;;;;;;;0.93;0.85;;;;;;;20.94;37.07;102707.78;5013133;28;20500;-71
2022/04/29 04:14:18;;;;;;;1.15;0.90;;;;;;;20.95;36.87;102703.09;5012106;28;20030;-71
2022/04/29 04:16:44;;;;;;;0.80;0.80;;;;;;;20.93;37.08;102708.03;5011785;28;20474;-71
2022/04/29 04:19:10;;;;;;;1.20;1.00;;;;;;;20.95;37.14;102703.97;5012732;28;20038;-72
2022/04/29 04:21:35;;;;;;;1.17;0.77;;;;;;;20.95;37.08;102703.09;5011768;28;20191;-71
2022/04/29 04:24:01;;;;;;;0.93;0.90;;;;;;;20.94;37.02;102693.16;5011706;28;20038;-71
2022/04/29 04:26:26;;;;;;;0.63;0.63;;;;;;;20.91;37.00;102688.97;5013138;28;20032;-71
2022/04/29 04:28:51;;;;;;;1.10;0.60;;;;;;;20.93;37.05;102688.72;5011592;28;20042;-71
2022/04/29 04:31:21;;;;;;;0.77;0.77;;;;;;;20.92;37.06;102693.41;5011686;28;20355;-71
2022/04/29 04:33:46;;;;;;;0.90;0.90;;;;;;;20.92;37.10;102690.66;5012809;28;20030;-70
2022/04/29 04:36:12;;;;;;;0.70;0.70;;;;;;;20.93;36.99;102702.50;5012541;28;20060;-70
2022/04/29 04:38:37;;;;;;;0.70;0.70;;;;;;;20.91;37.34;102691.72;5012664;28;20109;-70
2022/04/29 04:41:04;;;;;;;1.27;0.70;;;;;;;20.91;36.98;102688.13;5012724;28;20026;-71
2022/04/29 04:43:29;;;;;;;0.77;0.70;;;;;;;20.92;37.15;102689.78;5012670;28;20033;-71
2022/04/29 04:45:56;;;;;;;1.05;0.80;;;;;;;20.92;37.19;102687.03;5012823;28;20041;-71
2022/04/29 04:48:21;;;;;;;0.73;0.73;;;;;;;20.91;37.37;102688.13;5012628;28;20073;-71
2022/04/29 04:50:46;;;;;;;1.02;0.93;;;;;;;20.92;37.05;102692.53;5012588;28;20057;-71
2022/04/29 04:53:12;;;;;;;1.30;0.93;;;;;;;20.92;36.96;102689.78;5011371;28;20072;-71
2022/04/29 04:55:39;;;;;;;1.77;0.70;;;;;;;20.92;37.21;102689.78;5012456;28;20448;-71
2022/04/29 04:58:05;;;;;;;0.82;0.80;;;;;;;20.91;37.09;102688.97;5012336;28;20109;-72
2022/04/29 05:00:30;;;;;;;0.90;0.65;;;;;;;20.91;37.28;102680.69;5012450;28;20062;-71
2022/04/29 05:02:56;;;;;;;0.70;0.68;;;;;;;20.91;37.08;102690.88;5013507;28;20117;-71
2022/04/29 05:05:21;;;;;;;0.70;0.70;;;;;;;20.91;36.85;102683.44;5010968;28;20030;-71
2022/04/29 05:07:47;;;;;;;0.70;0.70;;;;;;;20.89;37.07;102685.63;5010513;28;20066;-71
2022/04/29 05:10:13;;;;;;;0.80;0.80;;;;;;;20.92;36.80;102689.78;5011001;28;20038;-71
2022/04/29 05:12:43;;;;;;;0.90;0.90;;;;;;;20.89;37.18;102688.38;5012241;28;20037;-71
2022/04/29 05:15:10;;;;;;;0.70;0.70;;;;;;;20.90;37.07;102686.44;5012645;28;20106;-71
2022/04/29 05:17:35;;;;;;;1.02;1.00;;;;;;;20.90;37.19;102686.44;5010545;28;20053;-71
2022/04/29 05:20:02;;;;;;;0.93;0.82;;;;;;;20.91;37.17;102688.97;5011775;28;20387;-71
2022/04/29 05:22:29;;;;;;;0.80;0.80;;;;;;;20.90;37.00;102684.50;5012600;28;20057;-71
2022/04/29 05:24:55;;;;;;;2.10;0.90;;;;;;;20.90;36.52;102686.44;5012336;28;20041;-71
2022/04/29 05:27:20;;;;;;;1.58;1.38;;;;;;;20.78;34.99;102692.78;5010682;28;20034;-70
2022/04/29 05:29:46;;;;;;;2.30;2.10;;;;;;;20.53;34.63;102697.66;5011169;28;20078;-70
2022/04/29 05:32:11;;;;;;;2.30;2.13;;;;;;;20.21;35.17;102689.69;4978170;28;20083;-72
2022/04/29 05:34:37;;;;;;;2.40;2.20;;;;;;;19.98;35.67;102697.66;5010746;28;20030;-75
2022/04/29 05:37:03;;;;;;;2.60;2.40;;;;;;;19.82;35.46;102694.72;5010694;28;20037;-70
2022/04/29 05:42:17;;;;;;;3.22;2.70;;;;;;;19.50;36.52;102686.63;5012077;28;20174;-76
2022/04/29 05:44:43;;;;;;;5.65;2.92;;;;;;;19.39;35.83;102691.81;5010478;28;20038;-72
2022/04/29 05:47:09;;;;;;;3.33;2.75;;;;;;;19.24;35.79;102694.13;5011613;28;20026;-72
2022/04/29 05:49:35;;;;;;;2.95;2.65;;;;;;;19.15;35.89;102703.72;5011393;28;20037;-73
2022/04/29 05:52:02;;;;;;;3.00;2.70;;;;;;;19.04;36.22;102705.34;5011623;28;20405;-72
2022/04/29 05:54:28;;;;;;;3.00;2.40;;;;;;;18.95;36.35;102703.97;5011262;28;20025;-75
2022/04/29 05:56:53;;;;;;;2.60;2.40;;;;;;;18.87;36.28;102713.34;4994088;28;20036;-73
2022/04/29 05:59:19;;;;;;;2.90;2.60;;;;;;;18.81;36.70;102714.19;4993906;28;20065;-71
2022/04/29 06:01:44;;;;;;;2.47;2.35;;;;;;;18.82;36.84;102715.88;5011374;28;20049;-73
2022/04/29 06:04:09;;;;;;;2.47;2.28;;;;;;;18.94;36.98;102719.59;5009895;28;20095;-73
2022/04/29 06:06:35;;;;;;;2.42;2.20;;;;;;;19.08;36.79;102706.56;5011317;28;20034;-73
2022/04/29 06:09:00;;;;;;;2.58;2.00;;;;;;;19.21;36.82;102708.34;5011933;28;20478;-73
2022/04/29 06:11:26;;;;;;;2.22;1.83;;;;;;;19.34;37.01;102718.34;5010633;28;20083;-73
2022/04/29 06:13:53;;;;;;;3.65;1.83;;;;;;;19.43;36.82;102712.31;5010148;28;20033;-73
2022/04/29 06:16:18;;;;;;;2.20;2.00;;;;;;;19.52;36.76;102721.09;5011219;28;20137;-73
2022/04/29 06:18:43;;;;;;;1.95;1.60;;;;;;;19.62;36.66;102726.06;5010471;28;20113;-73
2022/04/29 06:21:09;;;;;;;2.08;1.80;;;;;;;19.70;36.41;102722.16;5011112;28;20121;-72
2022/04/29 06:23:35;;;;;;;2.63;1.95;;;;;;;19.75;36.40;102714.91;5011172;28;20034;-72
2022/04/29 06:26:00;;;;;;;2.25;1.60;;;;;;;19.82;36.52;102723.09;5011083;28;20034;-73
2022/04/29 06:28:25;;;;;;;1.83;1.70;;;;;;;19.86;36.08;102721.56;5009992;28;20041;-73
2022/04/29 06:30:51;;;;;;;1.70;1.60;;;;;;;19.92;35.93;102723.38;5011111;28;20041;-72
2022/04/29 06:33:16;;;;;;;1.63;1.42;;;;;;;19.97;36.05;102730.94;5010788;28;20030;-72
2022/04/29 06:35:47;;;;;;;2.13;1.50;;;;;;;19.98;35.71;102727.94;5009902;28;20030;-71
2022/04/29 06:38:13;;;;;;;2.08;1.80;;;;;;;20.01;35.83;102729.41;5011007;28;20497;-72
2022/04/29 06:40:39;;;;;;;1.60;1.30;;;;;;;20.05;35.40;102736.13;5010954;28;20087;-71
2022/04/29 06:43:04;;;;;;;1.67;1.50;;;;;;;20.08;36.05;102732.09;5010967;28;20112;-72
2022/04/29 06:45:30;;;;;;;1.70;1.60;;;;;;;20.10;35.66;102728.00;4993328;28;20398;-72
2022/04/29 06:47:55;;;;;;;1.52;1.42;;;;;;;20.12;36.05;102725.88;5010577;28;20042;-72
2022/04/29 06:50:20;;;;;;;1.85;1.38;;;;;;;20.16;35.90;102728.97;4994083;28;20507;-73
2022/04/29 06:52:46;;;;;;;1.67;1.30;;;;;;;20.19;36.18;102736.78;5010826;28;20034;-73
2022/04/29 06:55:11;;;;;;;1.83;1.52;;;;;;;20.21;35.91;102736.53;5010835;28;20531;-73
2022/04/29 06:57:37;;;;;;;1.50;1.40;;;;;;;20.21;35.54;102740.16;5010848;28;20040;-73
2022/04/29 07:00:04;;;;;;;1.77;1.65;;;;;;;20.22;35.86;102743.75;5010950;28;20030;-73
2022/04/29 07:02:32;;;;;;;2.45;1.63;;;;;;;20.21;35.37;102747.56;5009515;28;20121;-73
2022/04/29 07:04:58;;;;;;;3.20;1.60;;;;;;;20.21;35.34;102742.91;5009878;28;20087;-73
2022/04/29 07:07:25;;;;;;;2.28;1.58;;;;;;;20.23;35.41;102737.16;5009593;28;20034;-73
2022/04/29 07:09:51;;;;;;;1.70;1.60;;;;;;;20.23;35.39;102738.00;5010664;28;20064;-73
2022/04/29 07:12:16;;;;;;;1.92;1.70;;;;;;;20.24;35.25;102739.69;5009360;28;20069;-73
2022/04/29 07:14:42;;;;;;;1.75;1.65;;;;;;;20.23;35.33;102738.00;5009399;28;20084;-73
2022/04/29 07:17:10;;;;;;;1.77;1.50;;;;;;;20.24;35.32;102745.19;5009251;28;20137;-73
2022/04/29 07:19:38;;;;;;;1.73;1.63;;;;;;;20.23;34.90;102743.50;5010515;28;20034;-73
2022/04/29 07:22:04;;;;;;;1.77;1.67;;;;;;;20.26;34.81;102744.97;5010743;28;20045;-73
2022/04/29 07:24:30;;;;;;;1.95;1.65;;;;;;;20.26;35.14;102744.97;5009221;28;20125;-73
2022/04/29 07:26:57;;;;;;;2.08;1.88;;;;;;;20.25;35.07;102738.59;5009088;28;20223;-73
2022/04/29 07:29:23;;;;;;;2.00;1.85;;;;;;;20.27;34.88;102738.34;5010234;28;20049;-73
2022/04/29 07:31:48;;;;;;;2.83;2.13;;;;;;;20.27;35.05;102744.72;5012829;28;20038;-74
2022/04/29 07:34:14;;;;;;;1.83;1.73;;;;;;;20.28;35.19;102737.28;5013332;28;20052;-73
2022/04/29 07:42:08;;;;;;;3.30;1.80;;;;;;;20.29;35.17;102734.28;5012878;28;20041;-73
2022/04/29 07:44:33;;;;;;;1.77;1.65;;;;;;;20.30;35.01;102735.16;5013276;28;20030;-73
2022/04/29 07:47:00;;;;;;;2.05;1.80;;;;;;;20.31;35.23;102739.56;5013167;28;20133;-73
2022/04/29 07:49:25;;;;;;;1.70;1.60;;;;;;;20.31;35.14;102734.91;5014039;28;20038;-73
2022/04/29 07:51:51;;;;;;;1.95;1.80;;;;;;;20.32;34.99;102736.56;5013393;28;20026;-74
2022/04/29 07:54:17;;;;;;;2.55;1.80;;;;;;;20.32;34.96;102730.22;5013979;28;20442;-73
2022/04/29 07:56:42;;;;;;;1.85;1.75;;;;;;;20.33;35.03;102735.50;5012225;28;20042;-73
2022/04/29 07:59:08;;;;;;;1.95;1.85;;;;;;;20.35;35.04;102742.72;4995775;28;20038;-70
2022/04/29 08:01:36;;;;;;;2.00;1.80;;;;;;;20.35;34.96;102746.28;5012002;28;20052;-74
2022/04/29 08:04:02;;;;;;;2.00;1.90;;;;;;;20.36;35.09;102747.13;5011822;28;20041;-73
2022/04/29 08:06:27;;;;;;;2.92;1.92;;;;;;;20.36;34.98;102744.38;5013158;28;20026;-73
2022/04/29 08:08:52;;;;;;;2.20;2.00;;;;;;;20.36;34.99;102747.13;5013735;28;20034;-73
2022/04/29 08:11:19;;;;;;;2.08;1.88;;;;;;;20.35;34.89;102749.06;5012749;28;20117;-73
2022/04/29 08:13:45;;;;;;;2.40;2.00;;;;;;;20.36;35.08;102742.47;5011879;28;20117;-73
2022/04/29 08:16:14;;;;;;;2.20;2.00;;;;;;;20.36;35.08;102736.97;5011793;28;20207;-73
2022/04/29 08:18:40;;;;;;;2.47;2.15;;;;;;;20.37;35.07;102737.78;5013008;28;20030;-73
2022/04/29 08:21:06;;;;;;;1.70;1.60;;;;;;;20.37;35.05;102741.38;5011757;28;20124;-73
2022/04/29 08:23:31;;;;;;;2.78;1.92;;;;;;;20.38;35.10;102736.72;5012953;28;20106;-73
2022/04/29 08:25:57;;;;;;;2.22;2.03;;;;;;;20.39;35.00;102749.41;5012788;28;20060;-73
2022/04/29 08:28:26;;;;;;;2.70;2.10;;;;;;;20.39;35.36;102744.75;5012662;28;20049;-73
2022/04/29 08:30:52;;;;;;;2.00;1.80;;;;;;;20.40;35.04;102754.69;5011534;28;20040;-74
2022/04/29 08:33:17;;;;;;;2.40;2.20;;;;;;;20.40;35.14;102754.69;5011971;28;20113;-73
2022/04/29 08:35:43;;;;;;;3.03;2.25;;;;;;;20.41;35.37;102759.13;5011677;28;20492;-73
2022/04/29 08:38:10;;;;;;;2.13;1.92;;;;;;;20.41;35.55;102741.75;5012728;28;20038;-73
2022/04/29 08:40:41;;;;;;;2.90;2.60;;;;;;;20.43;35.46;102757.00;5012682;28;20044;-73
2022/04/29 08:43:06;;;;;;;2.20;2.00;;;;;;;20.43;35.44;102748.72;5010526;28;20026;-73
2022/04/29 08:45:32;;;;;;;2.53;1.83;;;;;;;20.42;35.38;102743.44;5011524;28;20112;-73
2022/04/29 08:47:59;;;;;;;2.53;2.25;;;;;;;20.41;35.22;102750.84;5012599;28;20457;-73
2022/04/29 08:50:26;;;;;;;1.85;1.73;;;;;;;20.43;35.33;102742.34;5012148;28;20045;-73
2022/04/29 08:52:54;;;;;;;2.55;1.90;;;;;;;20.43;35.39;102751.47;5012997;28;20488;-73
2022/04/29 09:00:49;;;;;;;2.80;1.90;;;;;;;20.42;35.31;102726.91;5012755;28;20041;-73
2022/04/29 09:03:16;;;;;;;2.22;2.03;;;;;;;20.44;35.10;102717.31;5012352;28;20028;-73
2022/04/29 09:05:43;;;;;;;2.55;1.95;;;;;;;20.44;35.24;102722.81;5012117;28;20034;-73
2022/04/29 09:08:16;;;;;;;2.40;2.10;;;;;;;20.44;35.34;102731.09;5012798;28;20092;-73
2022/04/29 09:10:56;;;;;;;2.22;2.00;;;;;;;20.45;35.55;102738.28;5011339;28;20038;-73
2022/04/29 09:13:24;;;;;;;2.03;1.90;;;;;;;20.46;35.03;102741.88;5010990;28;20033;-73
2022/04/29 09:15:59;;;;;;;2.67;2.10;;;;;;;20.47;35.20;102743.56;5010739;28;20057;-73
2022/04/29 09:18:50;;;;;;;1.98;1.88;;;;;;;20.46;35.38;102744.63;5011848;28;20116;-73
2022/04/29 09:21:16;;;;;;;2.70;1.90;;;;;;;20.47;35.43;102746.31;5012708;28;20066;-73
2022/04/29 09:23:47;;;;;;;2.67;2.20;;;;;;;20.47;35.55;102747.16;5012109;28;20029;-73
2022/04/29 09:26:21;;;;;;;2.10;1.90;;;;;;;20.48;35.38;102740.56;5012260;28;20357;-73
2022/04/29 09:28:47;;;;;;;2.17;1.98;;;;;;;20.49;35.44;102752.44;5012154;28;20125;-73
2022/04/29 09:31:14;;;;;;;2.88;1.90;;;;;;;20.48;35.93;102751.59;5012012;28;20113;-73
2022/04/29 09:33:40;;;;;;;2.40;1.95;;;;;;;20.48;35.96;102745.25;5011625;28;20063;-73
2022/04/29 09:36:06;;;;;;;2.20;1.98;;;;;;;20.47;35.94;102757.34;5010644;28;20034;-73
2022/04/29 09:41:22;;;;;;;2.85;2.10;;;;;;;20.45;35.95;102760.34;5011820;28;20088;-73
2022/04/29 09:43:48;;;;;;;1.90;1.65;;;;;;;20.43;36.31;102759.75;5010492;28;20030;-73
2022/04/29 09:46:19;;;;;;;2.08;1.80;;;;;;;20.45;36.03;102746.56;5010498;28;20084;-73
2022/04/29 09:49:06;;;;;;;1.75;1.65;;;;;;;20.47;36.01;102749.91;5010486;28;20541;-73
2022/04/29 09:51:52;;;;;;;1.90;1.67;;;;;;;20.49;35.90;102757.94;5010428;28;20046;-73
2022/04/29 09:54:19;;;;;;;2.03;1.80;;;;;;;20.48;36.12;102746.09;5011421;28;20037;-73
2022/04/29 09:56:46;;;;;;;2.88;1.83;;;;;;;20.48;35.93;102737.00;5011489;28;20034;-73
2022/04/29 09:59:12;;;;;;;2.22;1.90;;;;;;;20.47;35.82;102736.13;5011417;28;20041;-73
2022/04/29 10:01:38;;;;;;;2.22;1.90;;;;;;;20.48;35.93;102729.53;5011475;28;20034;-73
2022/04/29 10:04:04;;;;;;;1.80;1.70;;;;;;;20.49;35.74;102736.75;5011730;28;20038;-73
2022/04/29 10:06:32;;;;;;;2.03;1.70;;;;;;;20.50;35.91;102732.06;4993816;28;20091;-73
2022/04/29 10:08:59;;;;;;;2.17;1.90;;;;;;;20.49;35.88;102739.50;5011339;28;20466;-73
2022/04/29 10:11:28;;;;;;;2.10;1.70;;;;;;;20.49;36.15;102736.75;5010087;28;20393;-73
2022/04/29 10:14:00;;;;;;;2.05;1.70;;;;;;;20.48;35.96;102731.47;5011589;28;20087;-73
2022/04/29 10:16:31;;;;;;;1.73;1.63;;;;;;;20.50;35.94;102721.03;5026930;28;20062;-73
2022/04/29 10:21:50;;;;;;;1.98;1.77;;;;;;;20.51;35.92;102719.97;5011255;28;20432;-73
2022/04/29 10:24:15;;;;;;;1.95;1.80;;;;;;;20.51;36.21;102719.97;5010031;28;20042;-73
2022/04/29 10:26:41;;;;;;;2.20;1.88;;;;;;;20.53;36.08;102719.72;5009802;28;20106;-73
2022/04/29 10:29:07;;;;;;;1.80;1.70;;;;;;;20.51;35.91;102718.03;5010743;28;20037;-73
2022/04/29 10:31:32;;;;;;;4.20;2.10;;;;;;;20.53;35.93;102714.22;5010763;28;20034;-73
2022/04/29 10:34:25;;;;;;;2.30;2.10;;;;;;;20.56;35.95;102722.84;5010792;28;20030;-72
2022/04/29 10:36:51;;;;;;;2.17;1.77;;;;;;;20.54;36.01;102718.66;5011307;28;20022;-73
2022/04/29 10:39:21;;;;;;;2.65;2.00;;;;;;;20.55;36.00;102723.06;5009624;28;20060;-73
2022/04/29 10:42:10;;;;;;;1.80;1.70;;;;;;;20.56;36.29;102719.25;5010674;28;20109;-73
2022/04/29 10:44:59;;;;;;;2.33;1.80;;;;;;;20.56;35.98;102714.56;5010897;28;20038;-73
2022/04/29 10:47:40;;;;;;;2.03;1.83;;;;;;;20.54;35.86;102715.91;5011644;28;20042;-73
2022/04/29 10:50:34;;;;;;;2.58;1.88;;;;;;;20.57;36.05;102720.94;5009662;28;20061;-73
2022/04/29 10:53:02;;;;;;;2.63;1.88;;;;;;;20.54;35.97;102716.72;5009575;28;20026;-73
2022/04/29 10:55:28;;;;;;;2.35;2.03;;;;;;;20.53;35.84;102716.97;5009549;28;20030;-73
2022/04/29 10:57:56;;;;;;;2.75;1.90;;;;;;;20.54;36.46;102716.72;5010793;28;20033;-76
2022/04/29 11:00:23;;;;;;;4.07;2.00;;;;;;;20.59;39.27;102711.34;5010953;28;20062;-76
2022/04/29 11:02:49;;;;;;;2.38;1.95;;;;;;;20.62;37.00;102701.75;5010774;28;20034;-77
2022/04/29 11:05:35;;;;;;;2.15;1.95;;;;;;;20.65;36.71;102702.13;5011142;28;20123;-76
2022/04/29 11:08:07;;;;;;;1.95;1.73;;;;;;;20.64;36.90;102697.69;5014014;28;20369;-74
2022/04/29 11:10:56;;;;;;;1.70;1.60;;;;;;;20.67;36.62;102701.91;5014462;28;20040;-74
2022/04/29 11:13:23;;;;;;;2.22;1.58;;;;;;;20.66;36.79;102700.22;5014159;28;20026;-75
2022/04/29 11:15:50;;;;;;;1.77;1.67;;;;;;;20.68;36.55;102698.06;5013886;28;20058;-75
2022/04/29 11:18:25;;;;;;;1.92;1.50;;;;;;;20.67;36.74;102697.25;5013290;28;20046;-74
2022/04/29 11:20:56;;;;;;;1.77;1.50;;;;;;;20.70;36.56;102708.84;5012978;28;20046;-76
2022/04/29 11:26:13;;;;;;;1.50;1.35;;;;;;;20.73;36.87;102700.97;5014438;28;20045;-75
2022/04/29 11:28:38;;;;;;;1.67;1.58;;;;;;;20.73;36.89;102695.44;5012689;28;20030;-74
2022/04/29 11:31:09;;;;;;;1.50;1.40;;;;;;;20.77;36.87;102693.03;4996893;28;20539;-76
2022/04/29 11:33:38;;;;;;;2.10;1.35;;;;;;;20.77;37.50;102693.03;5013551;28;20397;-75
2022/04/29 11:36:04;;;;;;;1.52;1.20;;;;;;;20.79;37.55;102688.97;5013819;28;20049;-73
2022/04/29 11:38:31;;;;;;;1.92;1.50;;;;;;;20.79;37.25;102691.72;5012688;28;20026;-73
2022/04/29 11:41:06;;;;;;;1.90;1.33;;;;;;;20.82;36.76;102696.75;5014197;28;20041;-72
2022/04/29 11:43:31;;;;;;;2.45;1.33;;;;;;;20.82;37.20;102684.91;5013961;28;20053;-72
2022/04/29 11:46:05;;;;;;;1.27;1.17;;;;;;;20.83;37.01;102687.41;5013554;28;20474;-72
2022/04/29 11:48:30;;;;;;;1.60;1.38;;;;;;;20.82;37.02;102695.94;5013816;28;20037;-72
2022/04/29 11:50:58;;;;;;;2.25;1.58;;;;;;;20.84;36.95;102686.31;5013800;28;20377;-72